Chandlersville, Ohio
Current Conditions -  °F | °C
As of 11:53 PM on Friday 28 Nov 2014 (Local Time) from KZZV Reporting Station
Clear Clear  
Wind Chill: 22°   Ceiling: Unl
Heat Index: 29°   Visibility: 10mi
Dew Point: 19°   Wind: 7mph
Humidity: 67%   Direction: 170°S
Pressure: 30.15"   Gusts: NA
Location:  39.9°N, 81.83°W
Report Text: KZZV 290453Z AUTO 17006KT 10SM CLR M02/M07 A3015 RMK AO2 SLP218 T10171072 410111044
Loading
Personal Weather Stations






























Interactive Weather Map New forecast layout! Learn more

10-Day Weather Forecast

Advertisements
Track Severe Weather on mobile